sensor_id;sensor_type;location;lat;lon;timestamp;temperature;humidity
13798;DHT22;6970;51.340;3.240;2022-10-14T00:01:11;14.10;99.90
13798;DHT22;6970;51.340;3.240;2022-10-14T00:03:39;14.00;99.90
13798;DHT22;6970;51.340;3.240;2022-10-14T00:06:09;14.00;99.90
13798;DHT22;6970;51.340;3.240;2022-10-14T00:08:36;14.00;99.90
13798;DHT22;6970;51.340;3.240;2022-10-14T00:11:11;14.10;99.90
13798;DHT22;6970;51.340;3.240;2022-10-14T00:13:39;14.10;99.90
13798;DHT22;6970;51.340;3.240;2022-10-14T00:16:11;14.10;99.90
13798;DHT22;6970;51.340;3.240;2022-10-14T00:18:40;14.10;99.90
13798;DHT22;6970;51.340;3.240;2022-10-14T00:21:07;14.10;99.90
13798;DHT22;6970;51.340;3.240;2022-10-14T00:23:35;14.10;99.90
13798;DHT22;6970;51.340;3.240;2022-10-14T00:26:02;14.10;99.90
13798;DHT22;6970;51.340;3.240;2022-10-14T00:28:29;14.10;99.90
13798;DHT22;6970;51.340;3.240;2022-10-14T00:30:58;14.10;99.90
13798;DHT22;6970;51.340;3.240;2022-10-14T00:33:27;14.10;99.90
13798;DHT22;6970;51.340;3.240;2022-10-14T00:35:58;14.10;99.90
13798;DHT22;6970;51.340;3.240;2022-10-14T00:38:26;14.20;99.90
13798;DHT22;6970;51.340;3.240;2022-10-14T00:40:54;14.20;99.90
13798;DHT22;6970;51.340;3.240;2022-10-14T00:43:24;14.20;99.90
13798;DHT22;6970;51.340;3.240;2022-10-14T00:45:51;14.20;99.90
13798;DHT22;6970;51.340;3.240;2022-10-14T00:48:20;14.20;99.90
13798;DHT22;6970;51.340;3.240;2022-10-14T00:50:50;14.20;99.90
13798;DHT22;6970;51.340;3.240;2022-10-14T00:53:18;14.20;99.90
13798;DHT22;6970;51.340;3.240;2022-10-14T00:55:47;14.30;99.90
13798;DHT22;6970;51.340;3.240;2022-10-14T00:58:14;14.30;99.90
13798;DHT22;6970;51.340;3.240;2022-10-14T01:00:42;14.30;99.90
13798;DHT22;6970;51.340;3.240;2022-10-14T01:03:17;14.30;99.90
13798;DHT22;6970;51.340;3.240;2022-10-14T01:05:53;14.40;99.90
13798;DHT22;6970;51.340;3.240;2022-10-14T01:08:30;14.40;99.90
13798;DHT22;6970;51.340;3.240;2022-10-14T01:11:08;14.30;99.90
13798;DHT22;6970;51.340;3.240;2022-10-14T01:22:44;14.40;99.90
13798;DHT22;6970;51.340;3.240;2022-10-14T01:25:32;14.40;99.90
13798;DHT22;6970;51.340;3.240;2022-10-14T01:30:48;14.40;99.90
13798;DHT22;6970;51.340;3.240;2022-10-14T01:33:23;14.40;99.90
13798;DHT22;6970;51.340;3.240;2022-10-14T01:36:15;14.50;99.90
13798;DHT22;6970;51.340;3.240;2022-10-14T01:41:38;14.50;99.90
13798;DHT22;6970;51.340;3.240;2022-10-14T01:44:10;14.50;99.90
13798;DHT22;6970;51.340;3.240;2022-10-14T01:46:39;14.50;99.90
13798;DHT22;6970;51.340;3.240;2022-10-14T01:49:12;14.50;99.90
13798;DHT22;6970;51.340;3.240;2022-10-14T01:51:50;14.50;99.90
13798;DHT22;6970;51.340;3.240;2022-10-14T01:54:23;14.60;99.90
13798;DHT22;6970;51.340;3.240;2022-10-14T01:56:52;14.60;99.90
13798;DHT22;6970;51.340;3.240;2022-10-14T01:59:21;14.60;99.90
13798;DHT22;6970;51.340;3.240;2022-10-14T02:01:49;14.60;99.90
13798;DHT22;6970;51.340;3.240;2022-10-14T02:04:18;14.60;99.90
13798;DHT22;6970;51.340;3.240;2022-10-14T02:18:14;14.70;99.90
13798;DHT22;6970;51.340;3.240;2022-10-14T02:23:26;14.70;99.90
13798;DHT22;6970;51.340;3.240;2022-10-14T02:25:54;14.70;99.90
13798;DHT22;6970;51.340;3.240;2022-10-14T02:28:23;14.70;99.90
13798;DHT22;6970;51.340;3.240;2022-10-14T02:30:59;14.70;99.90
13798;DHT22;6970;51.340;3.240;2022-10-14T02:33:32;14.80;99.90
13798;DHT22;6970;51.340;3.240;2022-10-14T02:36:01;14.70;99.90
13798;DHT22;6970;51.340;3.240;2022-10-14T02:38:31;14.70;99.90
13798;DHT22;6970;51.340;3.240;2022-10-14T02:41:00;14.80;99.90
13798;DHT22;6970;51.340;3.240;2022-10-14T02:43:28;14.80;99.90
13798;DHT22;6970;51.340;3.240;2022-10-14T02:46:01;14.80;99.90
13798;DHT22;6970;51.340;3.240;2022-10-14T02:48:28;14.80;99.90
13798;DHT22;6970;51.340;3.240;2022-10-14T02:50:55;14.80;99.90
13798;DHT22;6970;51.340;3.240;2022-10-14T02:53:22;14.80;99.90
13798;DHT22;6970;51.340;3.240;2022-10-14T02:55:49;14.80;99.90
13798;DHT22;6970;51.340;3.240;2022-10-14T02:58:16;14.80;99.90
13798;DHT22;6970;51.340;3.240;2022-10-14T03:00:43;14.80;99.90
13798;DHT22;6970;51.340;3.240;2022-10-14T03:03:10;14.80;99.90
13798;DHT22;6970;51.340;3.240;2022-10-14T03:05:36;14.80;99.90
13798;DHT22;6970;51.340;3.240;2022-10-14T03:08:03;14.80;99.90
13798;DHT22;6970;51.340;3.240;2022-10-14T03:10:30;14.80;99.90
13798;DHT22;6970;51.340;3.240;2022-10-14T03:12:57;14.80;99.90
13798;DHT22;6970;51.340;3.240;2022-10-14T03:15:24;14.80;99.90
13798;DHT22;6970;51.340;3.240;2022-10-14T03:17:51;14.80;99.90
13798;DHT22;6970;51.340;3.240;2022-10-14T03:20:18;14.80;99.90
13798;DHT22;6970;51.340;3.240;2022-10-14T03:22:45;14.80;99.90
13798;DHT22;6970;51.340;3.240;2022-10-14T03:25:12;14.80;99.90
13798;DHT22;6970;51.340;3.240;2022-10-14T03:27:39;14.90;99.90
13798;DHT22;6970;51.340;3.240;2022-10-14T03:30:06;14.80;99.90
13798;DHT22;6970;51.340;3.240;2022-10-14T03:32:33;14.90;99.90
13798;DHT22;6970;51.340;3.240;2022-10-14T03:35:00;14.90;99.90
13798;DHT22;6970;51.340;3.240;2022-10-14T03:37:27;14.90;99.90
13798;DHT22;6970;51.340;3.240;2022-10-14T03:39:55;14.90;99.90
13798;DHT22;6970;51.340;3.240;2022-10-14T03:42:22;14.90;99.90
13798;DHT22;6970;51.340;3.240;2022-10-14T03:44:49;14.90;99.90
13798;DHT22;6970;51.340;3.240;2022-10-14T03:47:16;14.90;99.90
13798;DHT22;6970;51.340;3.240;2022-10-14T03:49:43;14.90;99.90
13798;DHT22;6970;51.340;3.240;2022-10-14T03:52:10;14.90;99.90
13798;DHT22;6970;51.340;3.240;2022-10-14T03:54:37;14.90;99.90
13798;DHT22;6970;51.340;3.240;2022-10-14T03:57:04;14.90;99.90
13798;DHT22;6970;51.340;3.240;2022-10-14T03:59:31;14.90;99.90
13798;DHT22;6970;51.340;3.240;2022-10-14T04:01:58;14.90;99.90
13798;DHT22;6970;51.340;3.240;2022-10-14T04:04:25;15.00;99.90
13798;DHT22;6970;51.340;3.240;2022-10-14T04:06:52;15.00;99.90
13798;DHT22;6970;51.340;3.240;2022-10-14T04:09:19;15.00;99.90
13798;DHT22;6970;51.340;3.240;2022-10-14T04:11:46;15.00;99.90
13798;DHT22;6970;51.340;3.240;2022-10-14T04:14:13;15.00;99.90
13798;DHT22;6970;51.340;3.240;2022-10-14T04:16:40;14.90;99.90
13798;DHT22;6970;51.340;3.240;2022-10-14T04:19:14;14.90;99.90
13798;DHT22;6970;51.340;3.240;2022-10-14T04:21:41;14.90;99.90
13798;DHT22;6970;51.340;3.240;2022-10-14T04:24:08;15.00;99.90
13798;DHT22;6970;51.340;3.240;2022-10-14T04:26:35;14.90;99.90
13798;DHT22;6970;51.340;3.240;2022-10-14T04:29:02;15.00;99.90
13798;DHT22;6970;51.340;3.240;2022-10-14T04:31:29;15.00;99.90
13798;DHT22;6970;51.340;3.240;2022-10-14T04:33:56;15.00;99.90
13798;DHT22;6970;51.340;3.240;2022-10-14T04:36:23;15.00;99.90
13798;DHT22;6970;51.340;3.240;2022-10-14T04:38:50;15.00;99.90
13798;DHT22;6970;51.340;3.240;2022-10-14T04:41:17;15.00;99.90
13798;DHT22;6970;51.340;3.240;2022-10-14T04:43:44;15.00;99.90
13798;DHT22;6970;51.340;3.240;2022-10-14T04:46:11;15.00;99.90
13798;DHT22;6970;51.340;3.240;2022-10-14T04:48:39;15.00;99.90
13798;DHT22;6970;51.340;3.240;2022-10-14T04:51:06;15.00;99.90
13798;DHT22;6970;51.340;3.240;2022-10-14T04:53:33;15.00;99.90
13798;DHT22;6970;51.340;3.240;2022-10-14T04:56:00;15.00;99.90
13798;DHT22;6970;51.340;3.240;2022-10-14T04:58:27;15.00;99.90
13798;DHT22;6970;51.340;3.240;2022-10-14T05:00:54;15.00;99.90
13798;DHT22;6970;51.340;3.240;2022-10-14T05:03:21;15.00;99.90
13798;DHT22;6970;51.340;3.240;2022-10-14T05:05:49;14.90;99.90
13798;DHT22;6970;51.340;3.240;2022-10-14T05:08:17;15.00;99.90
13798;DHT22;6970;51.340;3.240;2022-10-14T05:10:44;15.00;99.90
13798;DHT22;6970;51.340;3.240;2022-10-14T05:13:11;15.00;99.90
13798;DHT22;6970;51.340;3.240;2022-10-14T05:15:38;15.00;99.90
13798;DHT22;6970;51.340;3.240;2022-10-14T05:18:05;15.00;99.90
13798;DHT22;6970;51.340;3.240;2022-10-14T05:20:32;14.90;99.90
13798;DHT22;6970;51.340;3.240;2022-10-14T05:22:59;14.90;99.90
13798;DHT22;6970;51.340;3.240;2022-10-14T05:25:25;14.90;99.90
13798;DHT22;6970;51.340;3.240;2022-10-14T05:27:53;14.90;99.90
13798;DHT22;6970;51.340;3.240;2022-10-14T05:30:20;14.90;99.90
13798;DHT22;6970;51.340;3.240;2022-10-14T05:32:47;14.80;99.90
13798;DHT22;6970;51.340;3.240;2022-10-14T05:35:14;14.80;99.90
13798;DHT22;6970;51.340;3.240;2022-10-14T05:37:55;14.80;99.90
13798;DHT22;6970;51.340;3.240;2022-10-14T05:40:29;14.80;99.90
13798;DHT22;6970;51.340;3.240;2022-10-14T05:42:56;14.80;99.90
13798;DHT22;6970;51.340;3.240;2022-10-14T05:45:23;14.80;99.90
13798;DHT22;6970;51.340;3.240;2022-10-14T05:47:51;14.80;99.90
13798;DHT22;6970;51.340;3.240;2022-10-14T05:50:20;14.80;99.90
13798;DHT22;6970;51.340;3.240;2022-10-14T05:52:47;14.80;99.90
13798;DHT22;6970;51.340;3.240;2022-10-14T05:55:14;14.80;99.90
13798;DHT22;6970;51.340;3.240;2022-10-14T05:57:41;14.80;99.90
13798;DHT22;6970;51.340;3.240;2022-10-14T06:00:10;14.90;99.90
13798;DHT22;6970;51.340;3.240;2022-10-14T06:02:37;14.90;99.90
13798;DHT22;6970;51.340;3.240;2022-10-14T06:05:04;14.90;99.90
13798;DHT22;6970;51.340;3.240;2022-10-14T06:07:34;14.90;99.90
13798;DHT22;6970;51.340;3.240;2022-10-14T06:10:01;14.90;99.90
13798;DHT22;6970;51.340;3.240;2022-10-14T06:12:28;14.90;99.90
13798;DHT22;6970;51.340;3.240;2022-10-14T06:14:54;14.90;99.90
13798;DHT22;6970;51.340;3.240;2022-10-14T06:17:21;14.90;99.90
13798;DHT22;6970;51.340;3.240;2022-10-14T06:19:48;14.90;99.90
13798;DHT22;6970;51.340;3.240;2022-10-14T06:22:15;14.90;99.90
13798;DHT22;6970;51.340;3.240;2022-10-14T06:24:42;14.90;99.90
13798;DHT22;6970;51.340;3.240;2022-10-14T06:27:09;14.90;99.90
13798;DHT22;6970;51.340;3.240;2022-10-14T06:29:36;14.90;99.90
13798;DHT22;6970;51.340;3.240;2022-10-14T06:32:07;14.90;99.90
13798;DHT22;6970;51.340;3.240;2022-10-14T06:34:34;15.00;99.90
13798;DHT22;6970;51.340;3.240;2022-10-14T06:37:01;15.00;99.90
13798;DHT22;6970;51.340;3.240;2022-10-14T06:39:28;15.00;99.90
13798;DHT22;6970;51.340;3.240;2022-10-14T06:41:55;15.00;99.90
13798;DHT22;6970;51.340;3.240;2022-10-14T06:44:23;14.90;99.90
13798;DHT22;6970;51.340;3.240;2022-10-14T06:46:50;15.00;99.90
13798;DHT22;6970;51.340;3.240;2022-10-14T06:49:17;15.00;99.90
13798;DHT22;6970;51.340;3.240;2022-10-14T06:51:43;15.00;99.90
13798;DHT22;6970;51.340;3.240;2022-10-14T06:54:11;14.90;99.90
13798;DHT22;6970;51.340;3.240;2022-10-14T06:56:37;14.90;99.90
13798;DHT22;6970;51.340;3.240;2022-10-14T06:59:04;14.90;99.90
13798;DHT22;6970;51.340;3.240;2022-10-14T07:01:31;14.90;99.90
13798;DHT22;6970;51.340;3.240;2022-10-14T07:03:58;14.90;99.90
13798;DHT22;6970;51.340;3.240;2022-10-14T07:06:25;14.90;99.90
13798;DHT22;6970;51.340;3.240;2022-10-14T07:08:52;14.90;99.90
13798;DHT22;6970;51.340;3.240;2022-10-14T07:11:19;14.90;99.90
13798;DHT22;6970;51.340;3.240;2022-10-14T07:13:46;15.00;99.90
13798;DHT22;6970;51.340;3.240;2022-10-14T07:16:13;15.00;99.90
13798;DHT22;6970;51.340;3.240;2022-10-14T07:18:40;14.90;99.90
13798;DHT22;6970;51.340;3.240;2022-10-14T07:21:07;15.00;99.90
13798;DHT22;6970;51.340;3.240;2022-10-14T07:23:34;15.00;99.90
13798;DHT22;6970;51.340;3.240;2022-10-14T07:26:01;14.90;99.90
13798;DHT22;6970;51.340;3.240;2022-10-14T07:28:28;15.00;99.90
13798;DHT22;6970;51.340;3.240;2022-10-14T07:31:09;15.00;99.90
13798;DHT22;6970;51.340;3.240;2022-10-14T07:33:37;15.00;99.90
13798;DHT22;6970;51.340;3.240;2022-10-14T07:36:10;15.00;99.90
13798;DHT22;6970;51.340;3.240;2022-10-14T07:38:37;15.00;99.90
13798;DHT22;6970;51.340;3.240;2022-10-14T07:41:12;15.10;99.90
13798;DHT22;6970;51.340;3.240;2022-10-14T07:43:52;15.10;99.90
13798;DHT22;6970;51.340;3.240;2022-10-14T07:46:22;15.10;99.90
13798;DHT22;6970;51.340;3.240;2022-10-14T07:49:01;15.10;99.90
13798;DHT22;6970;51.340;3.240;2022-10-14T07:51:28;15.20;99.90
13798;DHT22;6970;51.340;3.240;2022-10-14T07:53:57;15.20;99.90
13798;DHT22;6970;51.340;3.240;2022-10-14T07:56:24;15.20;99.90
13798;DHT22;6970;51.340;3.240;2022-10-14T07:58:52;15.20;99.90
13798;DHT22;6970;51.340;3.240;2022-10-14T08:01:19;15.30;99.90
13798;DHT22;6970;51.340;3.240;2022-10-14T08:03:47;15.30;99.90
13798;DHT22;6970;51.340;3.240;2022-10-14T08:06:15;15.30;99.90
13798;DHT22;6970;51.340;3.240;2022-10-14T08:08:42;15.30;99.90
13798;DHT22;6970;51.340;3.240;2022-10-14T08:11:15;15.30;99.90
13798;DHT22;6970;51.340;3.240;2022-10-14T08:13:43;15.30;99.90
13798;DHT22;6970;51.340;3.240;2022-10-14T08:16:13;15.30;99.90
13798;DHT22;6970;51.340;3.240;2022-10-14T08:18:40;15.30;99.90
13798;DHT22;6970;51.340;3.240;2022-10-14T08:21:07;15.30;99.90
13798;DHT22;6970;51.340;3.240;2022-10-14T08:23:34;15.30;99.90
13798;DHT22;6970;51.340;3.240;2022-10-14T08:26:01;15.40;99.90
13798;DHT22;6970;51.340;3.240;2022-10-14T08:28:28;15.40;99.90
13798;DHT22;6970;51.340;3.240;2022-10-14T08:30:55;15.40;99.90
13798;DHT22;6970;51.340;3.240;2022-10-14T08:33:22;15.40;99.90
13798;DHT22;6970;51.340;3.240;2022-10-14T08:35:49;15.40;99.90
13798;DHT22;6970;51.340;3.240;2022-10-14T08:38:19;15.40;99.90
13798;DHT22;6970;51.340;3.240;2022-10-14T08:43:35;15.40;99.90
13798;DHT22;6970;51.340;3.240;2022-10-14T08:49:01;15.50;99.90
13798;DHT22;6970;51.340;3.240;2022-10-14T08:51:32;15.40;99.90
13798;DHT22;6970;51.340;3.240;2022-10-14T08:54:04;15.50;99.90
13798;DHT22;6970;51.340;3.240;2022-10-14T08:56:35;15.50;99.90
13798;DHT22;6970;51.340;3.240;2022-10-14T08:59:09;15.40;99.90
13798;DHT22;6970;51.340;3.240;2022-10-14T09:01:58;15.50;99.90
13798;DHT22;6970;51.340;3.240;2022-10-14T09:04:26;15.50;99.90
13798;DHT22;6970;51.340;3.240;2022-10-14T09:06:54;15.50;99.90
13798;DHT22;6970;51.340;3.240;2022-10-14T09:09:35;15.50;99.90
13798;DHT22;6970;51.340;3.240;2022-10-14T09:12:08;15.50;99.90
13798;DHT22;6970;51.340;3.240;2022-10-14T09:14:41;15.50;99.90
13798;DHT22;6970;51.340;3.240;2022-10-14T09:17:20;15.60;99.90
13798;DHT22;6970;51.340;3.240;2022-10-14T09:22:36;16.00;99.90
13798;DHT22;6970;51.340;3.240;2022-10-14T09:25:11;16.10;99.90
13798;DHT22;6970;51.340;3.240;2022-10-14T09:27:38;16.30;99.90
13798;DHT22;6970;51.340;3.240;2022-10-14T09:30:08;16.50;99.90
13798;DHT22;6970;51.340;3.240;2022-10-14T09:32:50;16.60;99.90
13798;DHT22;6970;51.340;3.240;2022-10-14T09:35:38;16.70;99.90
13798;DHT22;6970;51.340;3.240;2022-10-14T09:38:06;16.70;99.90
13798;DHT22;6970;51.340;3.240;2022-10-14T09:46:01;17.20;99.90
13798;DHT22;6970;51.340;3.240;2022-10-14T09:48:48;17.40;99.90
13798;DHT22;6970;51.340;3.240;2022-10-14T09:53:48;17.70;99.90
13798;DHT22;6970;51.340;3.240;2022-10-14T09:56:29;17.70;99.90
13798;DHT22;6970;51.340;3.240;2022-10-14T09:58:58;17.60;99.90
13798;DHT22;6970;51.340;3.240;2022-10-14T10:01:39;17.60;99.90
13798;DHT22;6970;51.340;3.240;2022-10-14T10:04:40;17.60;99.90
13798;DHT22;6970;51.340;3.240;2022-10-14T10:07:31;17.70;99.90
13798;DHT22;6970;51.340;3.240;2022-10-14T10:10:01;17.60;99.90
13798;DHT22;6970;51.340;3.240;2022-10-14T10:12:30;17.60;99.90
13798;DHT22;6970;51.340;3.240;2022-10-14T10:15:00;17.70;99.90
13798;DHT22;6970;51.340;3.240;2022-10-14T10:17:31;17.60;99.90
13798;DHT22;6970;51.340;3.240;2022-10-14T10:20:26;17.60;99.90
13798;DHT22;6970;51.340;3.240;2022-10-14T10:23:22;17.60;99.90
13798;DHT22;6970;51.340;3.240;2022-10-14T10:25:52;17.80;99.90
13798;DHT22;6970;51.340;3.240;2022-10-14T10:28:28;17.80;99.90
13798;DHT22;6970;51.340;3.240;2022-10-14T10:34:11;18.00;99.90
13798;DHT22;6970;51.340;3.240;2022-10-14T10:36:50;18.20;99.90
13798;DHT22;6970;51.340;3.240;2022-10-14T10:42:32;18.70;99.90
13798;DHT22;6970;51.340;3.240;2022-10-14T10:48:20;19.10;99.90
13798;DHT22;6970;51.340;3.240;2022-10-14T10:51:05;19.40;99.90
13798;DHT22;6970;51.340;3.240;2022-10-14T11:04:34;20.00;99.90
13798;DHT22;6970;51.340;3.240;2022-10-14T11:16:32;20.40;99.90
13798;DHT22;6970;51.340;3.240;2022-10-14T11:27:35;21.20;99.90
13798;DHT22;6970;51.340;3.240;2022-10-14T11:30:13;21.20;99.90
13798;DHT22;6970;51.340;3.240;2022-10-14T11:46:08;21.20;99.90
13798;DHT22;6970;51.340;3.240;2022-10-14T11:51:34;21.00;99.90
13798;DHT22;6970;51.340;3.240;2022-10-14T11:54:16;20.80;99.90
13798;DHT22;6970;51.340;3.240;2022-10-14T12:03:08;20.50;99.90
13798;DHT22;6970;51.340;3.240;2022-10-14T12:11:02;20.10;99.90
13798;DHT22;6970;51.340;3.240;2022-10-14T12:13:47;20.10;99.90
13798;DHT22;6970;51.340;3.240;2022-10-14T12:16:20;19.90;99.90
13798;DHT22;6970;51.340;3.240;2022-10-14T12:18:54;19.80;99.90
13798;DHT22;6970;51.340;3.240;2022-10-14T12:21:43;19.60;99.90
13798;DHT22;6970;51.340;3.240;2022-10-14T12:24:19;19.50;99.90
13798;DHT22;6970;51.340;3.240;2022-10-14T12:29:32;19.50;99.90
13798;DHT22;6970;51.340;3.240;2022-10-14T12:34:42;19.50;99.90
13798;DHT22;6970;51.340;3.240;2022-10-14T12:42:35;19.70;99.90
13798;DHT22;6970;51.340;3.240;2022-10-14T12:45:19;19.70;99.90
13798;DHT22;6970;51.340;3.240;2022-10-14T12:47:46;19.60;99.90
13798;DHT22;6970;51.340;3.240;2022-10-14T12:52:45;19.50;99.90
13798;DHT22;6970;51.340;3.240;2022-10-14T12:55:19;19.40;99.90
13798;DHT22;6970;51.340;3.240;2022-10-14T12:57:59;19.20;99.90
13798;DHT22;6970;51.340;3.240;2022-10-14T13:00:29;19.10;99.90
13798;DHT22;6970;51.340;3.240;2022-10-14T13:03:02;18.90;99.90
13798;DHT22;6970;51.340;3.240;2022-10-14T13:05:37;18.70;99.90
13798;DHT22;6970;51.340;3.240;2022-10-14T13:16:09;18.60;99.90
13798;DHT22;6970;51.340;3.240;2022-10-14T13:21:27;18.50;99.90
13798;DHT22;6970;51.340;3.240;2022-10-14T13:30:47;18.90;99.90
13798;DHT22;6970;51.340;3.240;2022-10-14T13:38:22;18.70;99.90
13798;DHT22;6970;51.340;3.240;2022-10-14T13:40:55;18.70;99.90
13798;DHT22;6970;51.340;3.240;2022-10-14T13:43:28;18.60;99.90
13798;DHT22;6970;51.340;3.240;2022-10-14T13:46:14;18.60;99.90
13798;DHT22;6970;51.340;3.240;2022-10-14T13:48:50;18.40;99.90
13798;DHT22;6970;51.340;3.240;2022-10-14T13:56:53;18.10;99.90
13798;DHT22;6970;51.340;3.240;2022-10-14T13:59:47;18.00;99.90
13798;DHT22;6970;51.340;3.240;2022-10-14T14:02:34;18.10;99.90
13798;DHT22;6970;51.340;3.240;2022-10-14T14:05:01;18.10;99.90
13798;DHT22;6970;51.340;3.240;2022-10-14T14:07:34;18.20;99.90
13798;DHT22;6970;51.340;3.240;2022-10-14T14:10:23;18.30;99.90
13798;DHT22;6970;51.340;3.240;2022-10-14T14:12:50;18.30;99.90
13798;DHT22;6970;51.340;3.240;2022-10-14T14:15:25;18.50;99.90
13798;DHT22;6970;51.340;3.240;2022-10-14T14:17:52;18.50;99.90
13798;DHT22;6970;51.340;3.240;2022-10-14T14:20:25;18.60;99.90
13798;DHT22;6970;51.340;3.240;2022-10-14T14:22:56;18.70;99.90
13798;DHT22;6970;51.340;3.240;2022-10-14T14:25:28;18.70;99.90
13798;DHT22;6970;51.340;3.240;2022-10-14T14:28:03;18.60;99.90
13798;DHT22;6970;51.340;3.240;2022-10-14T14:30:35;18.60;99.90
13798;DHT22;6970;51.340;3.240;2022-10-14T14:33:10;18.50;99.90
13798;DHT22;6970;51.340;3.240;2022-10-14T14:35:52;18.60;99.90
13798;DHT22;6970;51.340;3.240;2022-10-14T14:43:30;18.50;99.90
13798;DHT22;6970;51.340;3.240;2022-10-14T14:46:03;18.30;99.90
13798;DHT22;6970;51.340;3.240;2022-10-14T14:48:31;18.30;99.90
13798;DHT22;6970;51.340;3.240;2022-10-14T14:51:00;18.30;99.90
13798;DHT22;6970;51.340;3.240;2022-10-14T14:53:27;18.30;99.90
13798;DHT22;6970;51.340;3.240;2022-10-14T14:56:11;18.30;99.90
13798;DHT22;6970;51.340;3.240;2022-10-14T14:58:45;18.20;99.90
13798;DHT22;6970;51.340;3.240;2022-10-14T15:01:28;18.20;99.90
13798;DHT22;6970;51.340;3.240;2022-10-14T15:04:06;18.20;99.90
13798;DHT22;6970;51.340;3.240;2022-10-14T15:07:00;18.20;99.90
13798;DHT22;6970;51.340;3.240;2022-10-14T15:11:55;18.20;99.90
13798;DHT22;6970;51.340;3.240;2022-10-14T15:16:57;18.20;99.90
13798;DHT22;6970;51.340;3.240;2022-10-14T15:19:28;18.20;99.90
13798;DHT22;6970;51.340;3.240;2022-10-14T15:22:20;18.10;99.90
13798;DHT22;6970;51.340;3.240;2022-10-14T15:32:42;17.80;99.90
13798;DHT22;6970;51.340;3.240;2022-10-14T15:35:14;17.80;99.90
13798;DHT22;6970;51.340;3.240;2022-10-14T15:37:41;17.80;99.90
13798;DHT22;6970;51.340;3.240;2022-10-14T15:40:17;17.70;99.90
13798;DHT22;6970;51.340;3.240;2022-10-14T15:42:45;17.70;99.90
13798;DHT22;6970;51.340;3.240;2022-10-14T15:45:13;17.70;99.90
13798;DHT22;6970;51.340;3.240;2022-10-14T15:47:40;17.60;99.90
13798;DHT22;6970;51.340;3.240;2022-10-14T15:50:16;17.60;99.90
13798;DHT22;6970;51.340;3.240;2022-10-14T15:52:43;17.60;99.90
13798;DHT22;6970;51.340;3.240;2022-10-14T15:55:22;17.50;99.90
13798;DHT22;6970;51.340;3.240;2022-10-14T15:57:50;17.50;99.90
13798;DHT22;6970;51.340;3.240;2022-10-14T16:00:20;17.50;99.90
13798;DHT22;6970;51.340;3.240;2022-10-14T16:02:50;17.40;99.90
13798;DHT22;6970;51.340;3.240;2022-10-14T16:05:27;17.40;99.90
13798;DHT22;6970;51.340;3.240;2022-10-14T16:07:55;17.30;99.90
13798;DHT22;6970;51.340;3.240;2022-10-14T16:10:23;17.30;99.90
13798;DHT22;6970;51.340;3.240;2022-10-14T16:12:50;17.30;99.90
13798;DHT22;6970;51.340;3.240;2022-10-14T16:15:37;17.30;99.90
13798;DHT22;6970;51.340;3.240;2022-10-14T16:18:05;17.30;99.90
13798;DHT22;6970;51.340;3.240;2022-10-14T16:20:32;17.20;99.90
13798;DHT22;6970;51.340;3.240;2022-10-14T16:22:59;17.20;99.90
13798;DHT22;6970;51.340;3.240;2022-10-14T16:25:42;17.20;99.90
13798;DHT22;6970;51.340;3.240;2022-10-14T16:28:11;17.20;99.90
13798;DHT22;6970;51.340;3.240;2022-10-14T16:30:40;17.10;99.90
13798;DHT22;6970;51.340;3.240;2022-10-14T16:33:08;17.00;99.90
13798;DHT22;6970;51.340;3.240;2022-10-14T16:35:35;17.00;99.90
13798;DHT22;6970;51.340;3.240;2022-10-14T16:38:02;16.90;99.90
13798;DHT22;6970;51.340;3.240;2022-10-14T16:40:29;16.80;99.90
13798;DHT22;6970;51.340;3.240;2022-10-14T16:43:02;16.80;99.90
13798;DHT22;6970;51.340;3.240;2022-10-14T16:45:29;16.70;99.90
13798;DHT22;6970;51.340;3.240;2022-10-14T16:47:56;16.70;99.90
13798;DHT22;6970;51.340;3.240;2022-10-14T16:50:23;16.70;99.90
13798;DHT22;6970;51.340;3.240;2022-10-14T16:52:51;16.60;99.90
13798;DHT22;6970;51.340;3.240;2022-10-14T16:55:36;16.60;99.90
13798;DHT22;6970;51.340;3.240;2022-10-14T16:58:05;16.60;99.90
13798;DHT22;6970;51.340;3.240;2022-10-14T17:00:32;16.50;99.90
13798;DHT22;6970;51.340;3.240;2022-10-14T17:02:59;16.40;99.90
13798;DHT22;6970;51.340;3.240;2022-10-14T17:05:27;16.40;99.90
13798;DHT22;6970;51.340;3.240;2022-10-14T17:07:54;16.40;99.90
13798;DHT22;6970;51.340;3.240;2022-10-14T17:10:21;16.30;99.90
13798;DHT22;6970;51.340;3.240;2022-10-14T17:12:48;16.30;99.90
13798;DHT22;6970;51.340;3.240;2022-10-14T17:15:15;16.30;99.90
13798;DHT22;6970;51.340;3.240;2022-10-14T17:17:42;16.20;99.90
13798;DHT22;6970;51.340;3.240;2022-10-14T17:20:09;16.20;99.90
13798;DHT22;6970;51.340;3.240;2022-10-14T17:22:36;16.20;99.90
13798;DHT22;6970;51.340;3.240;2022-10-14T17:25:03;16.10;99.90
13798;DHT22;6970;51.340;3.240;2022-10-14T17:27:31;16.10;99.90
13798;DHT22;6970;51.340;3.240;2022-10-14T17:29:57;16.00;99.90
13798;DHT22;6970;51.340;3.240;2022-10-14T17:32:25;16.00;99.90
13798;DHT22;6970;51.340;3.240;2022-10-14T17:34:53;16.00;99.90
13798;DHT22;6970;51.340;3.240;2022-10-14T17:37:21;16.00;99.90
13798;DHT22;6970;51.340;3.240;2022-10-14T17:39:48;16.00;99.90
13798;DHT22;6970;51.340;3.240;2022-10-14T17:42:15;16.00;99.90
13798;DHT22;6970;51.340;3.240;2022-10-14T17:44:41;15.90;99.90
13798;DHT22;6970;51.340;3.240;2022-10-14T17:47:09;15.90;99.90
13798;DHT22;6970;51.340;3.240;2022-10-14T17:49:37;15.90;99.90
13798;DHT22;6970;51.340;3.240;2022-10-14T17:52:04;15.90;99.90
13798;DHT22;6970;51.340;3.240;2022-10-14T17:54:32;15.80;99.90
13798;DHT22;6970;51.340;3.240;2022-10-14T17:56:58;15.80;99.90
13798;DHT22;6970;51.340;3.240;2022-10-14T17:59:26;15.80;99.90
13798;DHT22;6970;51.340;3.240;2022-10-14T18:01:53;15.80;99.90
13798;DHT22;6970;51.340;3.240;2022-10-14T18:04:29;15.80;99.90
13798;DHT22;6970;51.340;3.240;2022-10-14T18:06:55;15.80;99.90
13798;DHT22;6970;51.340;3.240;2022-10-14T18:09:24;15.80;99.90
13798;DHT22;6970;51.340;3.240;2022-10-14T18:11:51;15.80;99.90
13798;DHT22;6970;51.340;3.240;2022-10-14T18:14:35;15.80;99.90
13798;DHT22;6970;51.340;3.240;2022-10-14T18:17:02;15.70;99.90
13798;DHT22;6970;51.340;3.240;2022-10-14T18:19:31;15.70;99.90
13798;DHT22;6970;51.340;3.240;2022-10-14T18:21:58;15.70;99.90
13798;DHT22;6970;51.340;3.240;2022-10-14T18:24:25;15.70;99.90
13798;DHT22;6970;51.340;3.240;2022-10-14T18:26:52;15.70;99.90
13798;DHT22;6970;51.340;3.240;2022-10-14T18:29:20;15.70;99.90
13798;DHT22;6970;51.340;3.240;2022-10-14T18:31:51;15.70;99.90
13798;DHT22;6970;51.340;3.240;2022-10-14T18:34:18;15.70;99.90
13798;DHT22;6970;51.340;3.240;2022-10-14T18:36:45;15.80;99.90
13798;DHT22;6970;51.340;3.240;2022-10-14T18:39:13;15.70;99.90
13798;DHT22;6970;51.340;3.240;2022-10-14T18:41:41;15.70;99.90
13798;DHT22;6970;51.340;3.240;2022-10-14T18:44:09;15.70;99.90
13798;DHT22;6970;51.340;3.240;2022-10-14T18:46:37;15.70;99.90
13798;DHT22;6970;51.340;3.240;2022-10-14T18:49:07;15.70;99.90
13798;DHT22;6970;51.340;3.240;2022-10-14T18:51:36;15.70;99.90
13798;DHT22;6970;51.340;3.240;2022-10-14T18:54:10;15.70;99.90
13798;DHT22;6970;51.340;3.240;2022-10-14T18:56:38;15.70;99.90